Upper Lake, California
Current Conditions -  °F | °C
As of 10:56 AM on Friday 31 Oct 2014 (Local Time) from KUKI Reporting Station
Broken Clouds Broken Clouds  
Wind Chill: 57°   Ceiling: 8000
Heat Index: 57°   Visibility: 10mi
Dew Point: 53°   Wind: 3mph
Humidity: 87%   Direction: 140°SE
Pressure: 29.87"   Gusts: NA
Location:  39.16°N, 122.91°W
Report Text: KUKI 311756Z AUTO 14003KT 10SM FEW009 BKN080 14/12 A2987 RMK AO2 RAE15 SLP109 P0000 60051 T01390117 10150 20128 50003
Loading
Personal Weather Stations






























Interactive Weather Map
Tropical Storm Tracking
New forecast layout! Learn more

10-Day Weather Forecast

Advertisements
Track Severe Weather on mobile